sensor_id;sensor_type;location;lat;lon;timestamp;temperature;humidity
13598;DHT22;38563;54.258;12.574;2023-02-01T00:01:58;4.20;99.90
13598;DHT22;38563;54.258;12.574;2023-02-01T00:04:25;4.30;99.90
13598;DHT22;38563;54.258;12.574;2023-02-01T00:06:52;4.30;99.90
13598;DHT22;38563;54.258;12.574;2023-02-01T00:09:19;4.30;99.90
13598;DHT22;38563;54.258;12.574;2023-02-01T00:11:47;4.30;99.90
13598;DHT22;38563;54.258;12.574;2023-02-01T00:14:14;4.30;99.90
13598;DHT22;38563;54.258;12.574;2023-02-01T00:16:40;4.40;99.90
13598;DHT22;38563;54.258;12.574;2023-02-01T00:19:10;4.40;99.90
13598;DHT22;38563;54.258;12.574;2023-02-01T00:21:37;4.40;99.90
13598;DHT22;38563;54.258;12.574;2023-02-01T00:24:05;4.40;99.90
13598;DHT22;38563;54.258;12.574;2023-02-01T00:26:33;4.30;99.90
13598;DHT22;38563;54.258;12.574;2023-02-01T00:29:03;4.30;99.90
13598;DHT22;38563;54.258;12.574;2023-02-01T00:31:30;4.30;99.90
13598;DHT22;38563;54.258;12.574;2023-02-01T00:33:57;4.30;99.90
13598;DHT22;38563;54.258;12.574;2023-02-01T00:36:24;4.30;99.90
13598;DHT22;38563;54.258;12.574;2023-02-01T00:38:51;4.40;99.90
13598;DHT22;38563;54.258;12.574;2023-02-01T00:41:19;4.40;99.90
13598;DHT22;38563;54.258;12.574;2023-02-01T00:43:48;4.50;99.90
13598;DHT22;38563;54.258;12.574;2023-02-01T00:46:18;4.50;99.90
13598;DHT22;38563;54.258;12.574;2023-02-01T00:48:45;4.60;99.90
13598;DHT22;38563;54.258;12.574;2023-02-01T00:51:13;4.60;99.90
13598;DHT22;38563;54.258;12.574;2023-02-01T00:53:40;4.60;99.90
13598;DHT22;38563;54.258;12.574;2023-02-01T00:56:07;4.70;99.90
13598;DHT22;38563;54.258;12.574;2023-02-01T00:58:34;4.60;99.90
13598;DHT22;38563;54.258;12.574;2023-02-01T01:01:03;4.70;99.90
13598;DHT22;38563;54.258;12.574;2023-02-01T01:03:33;4.70;99.90
13598;DHT22;38563;54.258;12.574;2023-02-01T01:06:02;4.70;99.90
13598;DHT22;38563;54.258;12.574;2023-02-01T01:08:29;4.70;99.90
13598;DHT22;38563;54.258;12.574;2023-02-01T01:10:56;4.60;99.90
13598;DHT22;38563;54.258;12.574;2023-02-01T01:13:23;4.60;99.90
13598;DHT22;38563;54.258;12.574;2023-02-01T01:15:50;4.60;99.90
13598;DHT22;38563;54.258;12.574;2023-02-01T01:18:18;4.60;99.90
13598;DHT22;38563;54.258;12.574;2023-02-01T01:20:47;4.50;99.90
13598;DHT22;38563;54.258;12.574;2023-02-01T01:23:14;4.50;99.90
13598;DHT22;38563;54.258;12.574;2023-02-01T01:25:41;4.40;99.90
13598;DHT22;38563;54.258;12.574;2023-02-01T01:28:07;4.40;99.90
13598;DHT22;38563;54.258;12.574;2023-02-01T01:30:34;4.40;99.90
13598;DHT22;38563;54.258;12.574;2023-02-01T01:33:01;4.30;99.90
13598;DHT22;38563;54.258;12.574;2023-02-01T01:35:29;4.30;99.90
13598;DHT22;38563;54.258;12.574;2023-02-01T01:37:58;4.20;99.90
13598;DHT22;38563;54.258;12.574;2023-02-01T01:40:25;4.20;99.90
13598;DHT22;38563;54.258;12.574;2023-02-01T01:42:53;4.20;99.90
13598;DHT22;38563;54.258;12.574;2023-02-01T01:45:24;4.10;99.90
13598;DHT22;38563;54.258;12.574;2023-02-01T01:47:53;4.10;99.90
13598;DHT22;38563;54.258;12.574;2023-02-01T01:50:24;4.10;99.90
13598;DHT22;38563;54.258;12.574;2023-02-01T01:52:57;4.20;99.90
13598;DHT22;38563;54.258;12.574;2023-02-01T01:55:26;4.30;99.90
13598;DHT22;38563;54.258;12.574;2023-02-01T01:57:57;4.30;99.90
13598;DHT22;38563;54.258;12.574;2023-02-01T02:00:24;4.30;99.90
13598;DHT22;38563;54.258;12.574;2023-02-01T02:02:58;4.30;99.90
13598;DHT22;38563;54.258;12.574;2023-02-01T02:05:25;4.40;99.90
13598;DHT22;38563;54.258;12.574;2023-02-01T02:07:59;4.40;99.90
13598;DHT22;38563;54.258;12.574;2023-02-01T02:10:26;4.40;99.90
13598;DHT22;38563;54.258;12.574;2023-02-01T02:13:15;4.40;99.90
13598;DHT22;38563;54.258;12.574;2023-02-01T02:15:45;4.30;99.90
13598;DHT22;38563;54.258;12.574;2023-02-01T02:18:20;4.30;99.90
13598;DHT22;38563;54.258;12.574;2023-02-01T02:21:10;4.20;99.90
13598;DHT22;38563;54.258;12.574;2023-02-01T02:23:53;4.20;99.90
13598;DHT22;38563;54.258;12.574;2023-02-01T02:26:41;4.20;99.90
13598;DHT22;38563;54.258;12.574;2023-02-01T02:29:40;4.20;99.90
13598;DHT22;38563;54.258;12.574;2023-02-01T02:35:28;4.30;99.90
13598;DHT22;38563;54.258;12.574;2023-02-01T02:38:02;4.30;99.90
13598;DHT22;38563;54.258;12.574;2023-02-01T02:40:35;4.30;99.90
13598;DHT22;38563;54.258;12.574;2023-02-01T02:43:08;4.20;99.90
13598;DHT22;38563;54.258;12.574;2023-02-01T02:45:56;4.10;99.90
13598;DHT22;38563;54.258;12.574;2023-02-01T02:48:46;4.00;99.90
13598;DHT22;38563;54.258;12.574;2023-02-01T02:51:22;3.90;99.90
13598;DHT22;38563;54.258;12.574;2023-02-01T02:54:11;3.80;99.90
13598;DHT22;38563;54.258;12.574;2023-02-01T02:56:58;3.80;99.90
13598;DHT22;38563;54.258;12.574;2023-02-01T02:59:45;3.70;99.90
13598;DHT22;38563;54.258;12.574;2023-02-01T03:02:33;3.60;99.90
13598;DHT22;38563;54.258;12.574;2023-02-01T03:05:18;3.60;99.90
13598;DHT22;38563;54.258;12.574;2023-02-01T03:07:57;3.70;99.90
13598;DHT22;38563;54.258;12.574;2023-02-01T03:10:33;3.70;99.90
13598;DHT22;38563;54.258;12.574;2023-02-01T03:13:06;3.80;99.90
13598;DHT22;38563;54.258;12.574;2023-02-01T03:15:36;3.80;99.90
13598;DHT22;38563;54.258;12.574;2023-02-01T03:18:09;3.90;99.90
13598;DHT22;38563;54.258;12.574;2023-02-01T03:20:39;3.90;99.90
13598;DHT22;38563;54.258;12.574;2023-02-01T03:23:08;3.90;99.90
13598;DHT22;38563;54.258;12.574;2023-02-01T03:25:36;4.00;99.90
13598;DHT22;38563;54.258;12.574;2023-02-01T03:28:06;4.00;99.90
13598;DHT22;38563;54.258;12.574;2023-02-01T03:30:36;4.00;99.90
13598;DHT22;38563;54.258;12.574;2023-02-01T03:33:06;4.00;99.90
13598;DHT22;38563;54.258;12.574;2023-02-01T03:35:44;4.10;99.90
13598;DHT22;38563;54.258;12.574;2023-02-01T03:38:20;4.10;99.90
13598;DHT22;38563;54.258;12.574;2023-02-01T03:40:51;4.20;99.90
13598;DHT22;38563;54.258;12.574;2023-02-01T03:43:21;4.30;99.90
13598;DHT22;38563;54.258;12.574;2023-02-01T03:45:52;4.40;99.90
13598;DHT22;38563;54.258;12.574;2023-02-01T03:48:22;4.40;99.90
13598;DHT22;38563;54.258;12.574;2023-02-01T03:50:53;4.40;99.90
13598;DHT22;38563;54.258;12.574;2023-02-01T03:53:25;4.40;99.90
13598;DHT22;38563;54.258;12.574;2023-02-01T03:55:54;4.40;99.90
13598;DHT22;38563;54.258;12.574;2023-02-01T03:58:23;4.50;99.90
13598;DHT22;38563;54.258;12.574;2023-02-01T04:00:52;4.50;99.90
13598;DHT22;38563;54.258;12.574;2023-02-01T04:03:19;4.50;99.90
13598;DHT22;38563;54.258;12.574;2023-02-01T04:05:47;4.40;99.90
13598;DHT22;38563;54.258;12.574;2023-02-01T04:08:14;4.30;99.90
13598;DHT22;38563;54.258;12.574;2023-02-01T04:10:42;4.30;99.90
13598;DHT22;38563;54.258;12.574;2023-02-01T04:13:09;4.30;99.90
13598;DHT22;38563;54.258;12.574;2023-02-01T04:15:36;4.30;99.90
13598;DHT22;38563;54.258;12.574;2023-02-01T04:18:03;4.20;99.90
13598;DHT22;38563;54.258;12.574;2023-02-01T04:20:29;4.10;99.90
13598;DHT22;38563;54.258;12.574;2023-02-01T04:22:56;4.10;99.90
13598;DHT22;38563;54.258;12.574;2023-02-01T04:25:23;4.00;99.90
13598;DHT22;38563;54.258;12.574;2023-02-01T04:27:52;3.90;99.90
13598;DHT22;38563;54.258;12.574;2023-02-01T04:30:19;3.90;99.90
13598;DHT22;38563;54.258;12.574;2023-02-01T04:32:45;4.00;99.90
13598;DHT22;38563;54.258;12.574;2023-02-01T04:35:12;4.00;99.90
13598;DHT22;38563;54.258;12.574;2023-02-01T04:37:39;4.20;99.90
13598;DHT22;38563;54.258;12.574;2023-02-01T04:40:07;4.20;99.90
13598;DHT22;38563;54.258;12.574;2023-02-01T04:42:33;4.30;99.90
13598;DHT22;38563;54.258;12.574;2023-02-01T04:45:02;4.30;99.90
13598;DHT22;38563;54.258;12.574;2023-02-01T04:47:28;4.30;99.90
13598;DHT22;38563;54.258;12.574;2023-02-01T04:49:55;4.30;99.90
13598;DHT22;38563;54.258;12.574;2023-02-01T04:52:22;4.40;99.90
13598;DHT22;38563;54.258;12.574;2023-02-01T04:54:48;4.40;99.90
13598;DHT22;38563;54.258;12.574;2023-02-01T04:57:15;4.40;99.90
13598;DHT22;38563;54.258;12.574;2023-02-01T04:59:42;4.40;99.90
13598;DHT22;38563;54.258;12.574;2023-02-01T05:02:10;4.30;99.90
13598;DHT22;38563;54.258;12.574;2023-02-01T05:04:36;4.30;99.90
13598;DHT22;38563;54.258;12.574;2023-02-01T05:07:03;4.30;99.90
13598;DHT22;38563;54.258;12.574;2023-02-01T05:09:30;4.30;99.90
13598;DHT22;38563;54.258;12.574;2023-02-01T05:11:56;4.20;99.90
13598;DHT22;38563;54.258;12.574;2023-02-01T05:14:41;4.30;99.90
13598;DHT22;38563;54.258;12.574;2023-02-01T05:17:07;4.30;99.90
13598;DHT22;38563;54.258;12.574;2023-02-01T05:19:35;4.30;99.90
13598;DHT22;38563;54.258;12.574;2023-02-01T05:22:02;4.30;99.90
13598;DHT22;38563;54.258;12.574;2023-02-01T05:24:29;4.30;99.90
13598;DHT22;38563;54.258;12.574;2023-02-01T05:26:56;4.40;99.90
13598;DHT22;38563;54.258;12.574;2023-02-01T05:29:23;4.40;99.90
13598;DHT22;38563;54.258;12.574;2023-02-01T05:31:49;4.50;99.90
13598;DHT22;38563;54.258;12.574;2023-02-01T05:34:16;4.50;99.90
13598;DHT22;38563;54.258;12.574;2023-02-01T05:36:44;4.50;99.90
13598;DHT22;38563;54.258;12.574;2023-02-01T05:39:11;4.60;99.90
13598;DHT22;38563;54.258;12.574;2023-02-01T05:41:38;4.70;99.90
13598;DHT22;38563;54.258;12.574;2023-02-01T05:44:05;4.70;99.90
13598;DHT22;38563;54.258;12.574;2023-02-01T05:46:33;4.70;99.90
13598;DHT22;38563;54.258;12.574;2023-02-01T05:49:00;4.80;99.90
13598;DHT22;38563;54.258;12.574;2023-02-01T05:51:26;4.80;99.90
13598;DHT22;38563;54.258;12.574;2023-02-01T05:53:54;4.80;99.90
13598;DHT22;38563;54.258;12.574;2023-02-01T05:56:21;4.80;99.90
13598;DHT22;38563;54.258;12.574;2023-02-01T05:58:48;4.80;99.90
13598;DHT22;38563;54.258;12.574;2023-02-01T06:01:14;4.90;99.90
13598;DHT22;38563;54.258;12.574;2023-02-01T06:03:41;4.90;99.90
13598;DHT22;38563;54.258;12.574;2023-02-01T06:06:08;4.90;99.90
13598;DHT22;38563;54.258;12.574;2023-02-01T06:08:34;4.90;99.90
13598;DHT22;38563;54.258;12.574;2023-02-01T06:11:04;4.90;99.90
13598;DHT22;38563;54.258;12.574;2023-02-01T06:13:31;4.90;99.90
13598;DHT22;38563;54.258;12.574;2023-02-01T06:15:58;4.90;99.90
13598;DHT22;38563;54.258;12.574;2023-02-01T06:18:25;4.90;99.90
13598;DHT22;38563;54.258;12.574;2023-02-01T06:20:53;4.90;99.90
13598;DHT22;38563;54.258;12.574;2023-02-01T06:23:20;4.80;99.90
13598;DHT22;38563;54.258;12.574;2023-02-01T06:25:50;4.80;99.90
13598;DHT22;38563;54.258;12.574;2023-02-01T06:28:18;4.80;99.90
13598;DHT22;38563;54.258;12.574;2023-02-01T06:30:45;4.80;99.90
13598;DHT22;38563;54.258;12.574;2023-02-01T06:33:13;4.80;99.90
13598;DHT22;38563;54.258;12.574;2023-02-01T06:35:41;4.70;99.90
13598;DHT22;38563;54.258;12.574;2023-02-01T06:38:09;4.60;99.90
13598;DHT22;38563;54.258;12.574;2023-02-01T06:40:36;4.50;99.90
13598;DHT22;38563;54.258;12.574;2023-02-01T06:43:03;4.50;99.90
13598;DHT22;38563;54.258;12.574;2023-02-01T06:45:31;4.50;99.90
13598;DHT22;38563;54.258;12.574;2023-02-01T06:47:58;4.50;99.90
13598;DHT22;38563;54.258;12.574;2023-02-01T06:50:26;4.50;99.90
13598;DHT22;38563;54.258;12.574;2023-02-01T06:52:52;4.50;99.90
13598;DHT22;38563;54.258;12.574;2023-02-01T06:55:19;4.60;99.90
13598;DHT22;38563;54.258;12.574;2023-02-01T06:57:46;4.50;99.90
13598;DHT22;38563;54.258;12.574;2023-02-01T07:00:13;4.60;99.90
13598;DHT22;38563;54.258;12.574;2023-02-01T07:02:41;4.50;99.90
13598;DHT22;38563;54.258;12.574;2023-02-01T07:05:09;4.50;99.90
13598;DHT22;38563;54.258;12.574;2023-02-01T07:07:35;4.50;99.90
13598;DHT22;38563;54.258;12.574;2023-02-01T07:10:02;4.50;99.90
13598;DHT22;38563;54.258;12.574;2023-02-01T07:12:29;4.50;99.90
13598;DHT22;38563;54.258;12.574;2023-02-01T07:14:55;4.60;99.90
13598;DHT22;38563;54.258;12.574;2023-02-01T07:17:23;4.60;99.90
13598;DHT22;38563;54.258;12.574;2023-02-01T07:19:51;4.70;99.90
13598;DHT22;38563;54.258;12.574;2023-02-01T07:22:18;4.60;99.90
13598;DHT22;38563;54.258;12.574;2023-02-01T07:24:44;4.60;99.90
13598;DHT22;38563;54.258;12.574;2023-02-01T07:27:11;4.50;99.90
13598;DHT22;38563;54.258;12.574;2023-02-01T07:29:38;4.50;99.90
13598;DHT22;38563;54.258;12.574;2023-02-01T07:32:05;4.40;99.90
13598;DHT22;38563;54.258;12.574;2023-02-01T07:34:31;4.40;99.90
13598;DHT22;38563;54.258;12.574;2023-02-01T07:37:00;4.30;99.90
13598;DHT22;38563;54.258;12.574;2023-02-01T07:39:28;4.10;99.90
13598;DHT22;38563;54.258;12.574;2023-02-01T07:41:57;4.10;99.90
13598;DHT22;38563;54.258;12.574;2023-02-01T07:44:24;4.00;99.90
13598;DHT22;38563;54.258;12.574;2023-02-01T07:46:50;4.00;99.90
13598;DHT22;38563;54.258;12.574;2023-02-01T07:49:17;4.00;99.90
13598;DHT22;38563;54.258;12.574;2023-02-01T07:51:44;4.00;99.90
13598;DHT22;38563;54.258;12.574;2023-02-01T07:54:12;4.00;99.90
13598;DHT22;38563;54.258;12.574;2023-02-01T07:56:38;3.90;99.90
13598;DHT22;38563;54.258;12.574;2023-02-01T07:59:05;4.00;99.90
13598;DHT22;38563;54.258;12.574;2023-02-01T08:01:32;4.00;99.90
13598;DHT22;38563;54.258;12.574;2023-02-01T08:04:00;4.00;99.90
13598;DHT22;38563;54.258;12.574;2023-02-01T08:06:29;3.90;99.90
13598;DHT22;38563;54.258;12.574;2023-02-01T08:08:57;3.90;99.90
13598;DHT22;38563;54.258;12.574;2023-02-01T08:11:26;3.90;99.90
13598;DHT22;38563;54.258;12.574;2023-02-01T08:13:53;3.90;99.90
13598;DHT22;38563;54.258;12.574;2023-02-01T08:16:20;3.80;99.90
13598;DHT22;38563;54.258;12.574;2023-02-01T08:18:47;3.60;99.90
13598;DHT22;38563;54.258;12.574;2023-02-01T08:21:15;3.50;99.90
13598;DHT22;38563;54.258;12.574;2023-02-01T08:23:42;3.40;99.90
13598;DHT22;38563;54.258;12.574;2023-02-01T08:26:11;3.30;99.90
13598;DHT22;38563;54.258;12.574;2023-02-01T08:28:42;3.30;99.90
13598;DHT22;38563;54.258;12.574;2023-02-01T08:31:11;3.30;99.90
13598;DHT22;38563;54.258;12.574;2023-02-01T08:33:41;3.30;99.90
13598;DHT22;38563;54.258;12.574;2023-02-01T08:36:09;3.30;99.90
13598;DHT22;38563;54.258;12.574;2023-02-01T08:38:37;3.40;99.90
13598;DHT22;38563;54.258;12.574;2023-02-01T08:41:05;3.40;99.90
13598;DHT22;38563;54.258;12.574;2023-02-01T08:43:32;3.50;99.90
13598;DHT22;38563;54.258;12.574;2023-02-01T08:46:00;3.60;99.90
13598;DHT22;38563;54.258;12.574;2023-02-01T08:48:27;3.70;99.90
13598;DHT22;38563;54.258;12.574;2023-02-01T08:50:53;3.90;99.90
13598;DHT22;38563;54.258;12.574;2023-02-01T08:53:20;3.90;99.90
13598;DHT22;38563;54.258;12.574;2023-02-01T08:55:47;3.90;99.90
13598;DHT22;38563;54.258;12.574;2023-02-01T08:58:14;3.70;99.90
13598;DHT22;38563;54.258;12.574;2023-02-01T09:00:42;3.60;99.90
13598;DHT22;38563;54.258;12.574;2023-02-01T09:03:11;3.50;99.90
13598;DHT22;38563;54.258;12.574;2023-02-01T09:05:38;3.50;99.90
13598;DHT22;38563;54.258;12.574;2023-02-01T09:08:06;3.30;99.90
13598;DHT22;38563;54.258;12.574;2023-02-01T09:10:33;3.10;99.90
13598;DHT22;38563;54.258;12.574;2023-02-01T09:13:00;3.10;99.90
13598;DHT22;38563;54.258;12.574;2023-02-01T09:15:27;3.10;99.90
13598;DHT22;38563;54.258;12.574;2023-02-01T09:17:53;3.20;99.90
13598;DHT22;38563;54.258;12.574;2023-02-01T09:20:21;3.20;99.90
13598;DHT22;38563;54.258;12.574;2023-02-01T09:22:51;3.20;99.90
13598;DHT22;38563;54.258;12.574;2023-02-01T09:25:18;3.30;99.90
13598;DHT22;38563;54.258;12.574;2023-02-01T09:27:45;3.30;99.90
13598;DHT22;38563;54.258;12.574;2023-02-01T09:30:12;3.40;99.90
13598;DHT22;38563;54.258;12.574;2023-02-01T09:32:39;3.50;99.90
13598;DHT22;38563;54.258;12.574;2023-02-01T09:35:06;3.60;99.90
13598;DHT22;38563;54.258;12.574;2023-02-01T09:37:34;3.80;99.90
13598;DHT22;38563;54.258;12.574;2023-02-01T09:40:01;3.90;99.90
13598;DHT22;38563;54.258;12.574;2023-02-01T09:42:56;3.90;99.90
13598;DHT22;38563;54.258;12.574;2023-02-01T09:45:32;3.90;99.90
13598;DHT22;38563;54.258;12.574;2023-02-01T09:48:08;3.90;99.90
13598;DHT22;38563;54.258;12.574;2023-02-01T09:50:41;3.90;99.90
13598;DHT22;38563;54.258;12.574;2023-02-01T09:53:15;3.90;99.90
13598;DHT22;38563;54.258;12.574;2023-02-01T09:55:47;3.80;99.90
13598;DHT22;38563;54.258;12.574;2023-02-01T09:58:18;3.90;99.90
13598;DHT22;38563;54.258;12.574;2023-02-01T10:00:51;3.80;99.90
13598;DHT22;38563;54.258;12.574;2023-02-01T10:03:19;3.90;99.90
13598;DHT22;38563;54.258;12.574;2023-02-01T10:05:59;3.80;99.90
13598;DHT22;38563;54.258;12.574;2023-02-01T10:08:37;3.80;99.90
13598;DHT22;38563;54.258;12.574;2023-02-01T10:11:16;3.80;99.90
13598;DHT22;38563;54.258;12.574;2023-02-01T10:13:54;3.80;99.90
13598;DHT22;38563;54.258;12.574;2023-02-01T10:16:34;3.80;99.90
13598;DHT22;38563;54.258;12.574;2023-02-01T10:19:29;3.80;99.90
13598;DHT22;38563;54.258;12.574;2023-02-01T10:22:02;3.90;99.90
13598;DHT22;38563;54.258;12.574;2023-02-01T10:24:38;3.90;99.90
13598;DHT22;38563;54.258;12.574;2023-02-01T10:27:14;3.90;99.90
13598;DHT22;38563;54.258;12.574;2023-02-01T10:29:50;3.90;99.90
13598;DHT22;38563;54.258;12.574;2023-02-01T10:32:21;3.90;99.90
13598;DHT22;38563;54.258;12.574;2023-02-01T10:34:52;3.90;99.90
13598;DHT22;38563;54.258;12.574;2023-02-01T10:37:28;4.00;99.90
13598;DHT22;38563;54.258;12.574;2023-02-01T10:39:59;4.10;99.90
13598;DHT22;38563;54.258;12.574;2023-02-01T10:42:27;4.10;99.90
13598;DHT22;38563;54.258;12.574;2023-02-01T10:44:56;4.00;99.90
13598;DHT22;38563;54.258;12.574;2023-02-01T10:47:25;4.00;99.90
13598;DHT22;38563;54.258;12.574;2023-02-01T10:49:56;3.70;99.90
13598;DHT22;38563;54.258;12.574;2023-02-01T10:52:33;3.50;99.90
13598;DHT22;38563;54.258;12.574;2023-02-01T10:55:31;3.30;99.90
13598;DHT22;38563;54.258;12.574;2023-02-01T10:58:00;3.10;99.90
13598;DHT22;38563;54.258;12.574;2023-02-01T11:00:28;3.10;99.90
13598;DHT22;38563;54.258;12.574;2023-02-01T11:02:54;3.10;99.90
13598;DHT22;38563;54.258;12.574;2023-02-01T11:05:21;3.20;99.90
13598;DHT22;38563;54.258;12.574;2023-02-01T11:07:51;3.20;99.90
13598;DHT22;38563;54.258;12.574;2023-02-01T11:10:37;3.20;99.90
13598;DHT22;38563;54.258;12.574;2023-02-01T11:13:04;3.10;99.90
13598;DHT22;38563;54.258;12.574;2023-02-01T11:15:31;3.00;99.90
13598;DHT22;38563;54.258;12.574;2023-02-01T11:18:14;3.00;99.90
13598;DHT22;38563;54.258;12.574;2023-02-01T11:20:42;2.90;99.90
13598;DHT22;38563;54.258;12.574;2023-02-01T11:23:13;3.00;99.90
13598;DHT22;38563;54.258;12.574;2023-02-01T11:25:50;3.10;99.90
13598;DHT22;38563;54.258;12.574;2023-02-01T11:28:17;3.30;99.90
13598;DHT22;38563;54.258;12.574;2023-02-01T11:30:47;3.20;99.90
13598;DHT22;38563;54.258;12.574;2023-02-01T11:33:16;3.30;99.90
13598;DHT22;38563;54.258;12.574;2023-02-01T11:35:44;3.40;99.90
13598;DHT22;38563;54.258;12.574;2023-02-01T11:38:18;3.50;99.90
13598;DHT22;38563;54.258;12.574;2023-02-01T11:40:46;3.60;99.90
13598;DHT22;38563;54.258;12.574;2023-02-01T11:43:18;3.70;99.90
13598;DHT22;38563;54.258;12.574;2023-02-01T11:45:54;3.80;99.90
13598;DHT22;38563;54.258;12.574;2023-02-01T11:48:23;3.90;99.90
13598;DHT22;38563;54.258;12.574;2023-02-01T11:51:04;4.00;99.90
13598;DHT22;38563;54.258;12.574;2023-02-01T11:53:45;4.20;99.90
13598;DHT22;38563;54.258;12.574;2023-02-01T11:56:19;4.40;99.90
13598;DHT22;38563;54.258;12.574;2023-02-01T11:59:07;4.30;99.90
13598;DHT22;38563;54.258;12.574;2023-02-01T12:01:58;4.20;99.90
13598;DHT22;38563;54.258;12.574;2023-02-01T12:05:06;4.10;99.90
13598;DHT22;38563;54.258;12.574;2023-02-01T12:07:49;4.00;99.90
13598;DHT22;38563;54.258;12.574;2023-02-01T12:10:25;4.00;99.90
13598;DHT22;38563;54.258;12.574;2023-02-01T12:13:08;4.00;99.90
13598;DHT22;38563;54.258;12.574;2023-02-01T12:15:50;4.00;99.90
13598;DHT22;38563;54.258;12.574;2023-02-01T12:21:44;4.00;99.90
13598;DHT22;38563;54.258;12.574;2023-02-01T12:24:31;4.20;99.90
13598;DHT22;38563;54.258;12.574;2023-02-01T12:27:15;4.30;99.90
13598;DHT22;38563;54.258;12.574;2023-02-01T12:29:56;4.30;99.90
13598;DHT22;38563;54.258;12.574;2023-02-01T12:32:39;4.20;99.90
13598;DHT22;38563;54.258;12.574;2023-02-01T12:35:28;4.20;99.90
13598;DHT22;38563;54.258;12.574;2023-02-01T12:38:13;4.30;99.90
13598;DHT22;38563;54.258;12.574;2023-02-01T12:40:53;4.40;99.90
13598;DHT22;38563;54.258;12.574;2023-02-01T12:43:28;4.60;99.90
13598;DHT22;38563;54.258;12.574;2023-02-01T12:46:03;4.60;99.90
13598;DHT22;38563;54.258;12.574;2023-02-01T12:48:35;4.60;99.90
13598;DHT22;38563;54.258;12.574;2023-02-01T12:51:07;4.60;99.90
13598;DHT22;38563;54.258;12.574;2023-02-01T12:53:44;4.50;99.90
13598;DHT22;38563;54.258;12.574;2023-02-01T12:56:15;4.50;99.90
13598;DHT22;38563;54.258;12.574;2023-02-01T12:58:45;4.50;99.90
13598;DHT22;38563;54.258;12.574;2023-02-01T13:01:16;4.50;99.90
13598;DHT22;38563;54.258;12.574;2023-02-01T13:03:52;4.50;99.90
13598;DHT22;38563;54.258;12.574;2023-02-01T13:06:23;4.50;99.90
13598;DHT22;38563;54.258;12.574;2023-02-01T13:08:56;4.60;99.90
13598;DHT22;38563;54.258;12.574;2023-02-01T13:11:29;4.60;99.90
13598;DHT22;38563;54.258;12.574;2023-02-01T13:14:00;4.70;99.90
13598;DHT22;38563;54.258;12.574;2023-02-01T13:16:31;4.60;99.90
13598;DHT22;38563;54.258;12.574;2023-02-01T13:19:08;4.60;99.90
13598;DHT22;38563;54.258;12.574;2023-02-01T13:21:39;4.60;99.90
13598;DHT22;38563;54.258;12.574;2023-02-01T13:24:20;4.60;99.90
13598;DHT22;38563;54.258;12.574;2023-02-01T13:26:49;4.60;99.90
13598;DHT22;38563;54.258;12.574;2023-02-01T13:29:19;4.60;99.90
13598;DHT22;38563;54.258;12.574;2023-02-01T13:35:11;4.60;99.90
13598;DHT22;38563;54.258;12.574;2023-02-01T13:38:04;4.30;99.90
13598;DHT22;38563;54.258;12.574;2023-02-01T13:40:38;3.20;99.90
13598;DHT22;38563;54.258;12.574;2023-02-01T13:43:11;2.80;99.90
13598;DHT22;38563;54.258;12.574;2023-02-01T13:45:43;2.80;99.90
13598;DHT22;38563;54.258;12.574;2023-02-01T13:48:19;2.70;99.90
13598;DHT22;38563;54.258;12.574;2023-02-01T13:50:52;2.60;99.90
13598;DHT22;38563;54.258;12.574;2023-02-01T13:53:26;2.50;99.90
13598;DHT22;38563;54.258;12.574;2023-02-01T13:56:00;2.40;99.90
13598;DHT22;38563;54.258;12.574;2023-02-01T13:58:33;2.30;99.90
13598;DHT22;38563;54.258;12.574;2023-02-01T14:01:33;2.30;99.90
13598;DHT22;38563;54.258;12.574;2023-02-01T14:04:03;2.40;99.90
13598;DHT22;38563;54.258;12.574;2023-02-01T14:06:52;2.40;99.90
13598;DHT22;38563;54.258;12.574;2023-02-01T14:09:32;2.40;99.90
13598;DHT22;38563;54.258;12.574;2023-02-01T14:15:21;2.40;99.90
13598;DHT22;38563;54.258;12.574;2023-02-01T14:17:49;2.50;99.90
13598;DHT22;38563;54.258;12.574;2023-02-01T14:20:43;2.50;99.90
13598;DHT22;38563;54.258;12.574;2023-02-01T14:23:38;2.60;99.90
13598;DHT22;38563;54.258;12.574;2023-02-01T14:26:20;2.60;99.90
13598;DHT22;38563;54.258;12.574;2023-02-01T14:28:57;2.70;99.90
13598;DHT22;38563;54.258;12.574;2023-02-01T14:31:47;2.60;99.90
13598;DHT22;38563;54.258;12.574;2023-02-01T14:34:18;2.70;99.90
13598;DHT22;38563;54.258;12.574;2023-02-01T14:36:50;2.70;99.90
13598;DHT22;38563;54.258;12.574;2023-02-01T14:39:31;2.70;99.90
13598;DHT22;38563;54.258;12.574;2023-02-01T14:42:02;2.70;99.90
13598;DHT22;38563;54.258;12.574;2023-02-01T14:44:32;2.60;99.90
13598;DHT22;38563;54.258;12.574;2023-02-01T14:47:11;2.60;99.90
13598;DHT22;38563;54.258;12.574;2023-02-01T14:49:56;2.60;99.90
13598;DHT22;38563;54.258;12.574;2023-02-01T14:52:29;2.50;99.90
13598;DHT22;38563;54.258;12.574;2023-02-01T14:55:03;2.50;99.90
13598;DHT22;38563;54.258;12.574;2023-02-01T14:57:34;2.50;99.90
13598;DHT22;38563;54.258;12.574;2023-02-01T15:00:14;2.60;99.90
13598;DHT22;38563;54.258;12.574;2023-02-01T15:02:43;2.60;99.90
13598;DHT22;38563;54.258;12.574;2023-02-01T15:05:23;2.80;99.90
13598;DHT22;38563;54.258;12.574;2023-02-01T15:07:50;2.80;99.90
13598;DHT22;38563;54.258;12.574;2023-02-01T15:10:20;2.90;99.90
13598;DHT22;38563;54.258;12.574;2023-02-01T15:12:47;3.00;99.90
13598;DHT22;38563;54.258;12.574;2023-02-01T15:15:17;3.10;99.90
13598;DHT22;38563;54.258;12.574;2023-02-01T15:17:50;3.10;99.90
13598;DHT22;38563;54.258;12.574;2023-02-01T15:20:19;3.10;99.90
13598;DHT22;38563;54.258;12.574;2023-02-01T15:22:54;3.10;99.90
13598;DHT22;38563;54.258;12.574;2023-02-01T15:25:24;3.10;99.90
13598;DHT22;38563;54.258;12.574;2023-02-01T15:27:51;3.10;99.90
13598;DHT22;38563;54.258;12.574;2023-02-01T15:30:21;3.10;99.90
13598;DHT22;38563;54.258;12.574;2023-02-01T15:32:48;3.10;99.90
13598;DHT22;38563;54.258;12.574;2023-02-01T15:35:39;3.20;99.90
13598;DHT22;38563;54.258;12.574;2023-02-01T15:38:37;3.30;99.90
13598;DHT22;38563;54.258;12.574;2023-02-01T15:41:09;3.30;99.90
13598;DHT22;38563;54.258;12.574;2023-02-01T15:43:38;3.40;99.90
13598;DHT22;38563;54.258;12.574;2023-02-01T15:46:11;3.40;99.90
13598;DHT22;38563;54.258;12.574;2023-02-01T15:48:43;3.40;99.90
13598;DHT22;38563;54.258;12.574;2023-02-01T15:51:16;3.40;99.90
13598;DHT22;38563;54.258;12.574;2023-02-01T15:53:45;3.40;99.90
13598;DHT22;38563;54.258;12.574;2023-02-01T15:56:14;3.40;99.90
13598;DHT22;38563;54.258;12.574;2023-02-01T15:58:50;3.40;99.90
13598;DHT22;38563;54.258;12.574;2023-02-01T16:01:17;3.50;99.90
13598;DHT22;38563;54.258;12.574;2023-02-01T16:03:46;3.60;99.90
13598;DHT22;38563;54.258;12.574;2023-02-01T16:06:27;3.70;99.90
13598;DHT22;38563;54.258;12.574;2023-02-01T16:08:55;3.80;99.90
13598;DHT22;38563;54.258;12.574;2023-02-01T16:11:29;3.90;99.90